sensor_id;sensor_type;location;lat;lon;timestamp;temperature;humidity
69543;SHT31;56762;49.494;11.768;2023-12-22T00:01:27;5.23;86.02
69543;SHT31;56762;49.494;11.768;2023-12-22T00:03:55;5.32;87.76
69543;SHT31;56762;49.494;11.768;2023-12-22T00:06:23;5.36;85.29
69543;SHT31;56762;49.494;11.768;2023-12-22T00:08:52;5.36;87.15
69543;SHT31;56762;49.494;11.768;2023-12-22T00:11:20;5.36;86.19
69543;SHT31;56762;49.494;11.768;2023-12-22T00:13:47;5.50;85.10
69543;SHT31;56762;49.494;11.768;2023-12-22T00:16:15;5.47;85.69
69543;SHT31;56762;49.494;11.768;2023-12-22T00:18:43;5.58;85.51
69543;SHT31;56762;49.494;11.768;2023-12-22T00:21:11;5.44;85.96
69543;SHT31;56762;49.494;11.768;2023-12-22T00:23:39;5.39;85.24
69543;SHT31;56762;49.494;11.768;2023-12-22T00:26:08;5.43;84.70
69543;SHT31;56762;49.494;11.768;2023-12-22T00:28:36;5.39;83.56
69543;SHT31;56762;49.494;11.768;2023-12-22T00:31:04;5.60;85.70
69543;SHT31;56762;49.494;11.768;2023-12-22T00:33:31;5.54;86.57
69543;SHT31;56762;49.494;11.768;2023-12-22T00:36:00;5.42;85.76
69543;SHT31;56762;49.494;11.768;2023-12-22T00:38:27;5.27;84.85
69543;SHT31;56762;49.494;11.768;2023-12-22T00:40:55;5.40;85.97
69543;SHT31;56762;49.494;11.768;2023-12-22T00:43:24;5.36;86.20
69543;SHT31;56762;49.494;11.768;2023-12-22T00:45:52;5.44;84.40
69543;SHT31;56762;49.494;11.768;2023-12-22T00:48:20;5.39;82.69
69543;SHT31;56762;49.494;11.768;2023-12-22T00:50:48;5.46;85.57
69543;SHT31;56762;49.494;11.768;2023-12-22T00:53:16;5.54;83.93
69543;SHT31;56762;49.494;11.768;2023-12-22T00:55:43;5.54;84.04
69543;SHT31;56762;49.494;11.768;2023-12-22T00:58:12;5.55;85.88
69543;SHT31;56762;49.494;11.768;2023-12-22T01:00:41;5.39;82.75
69543;SHT31;56762;49.494;11.768;2023-12-22T01:03:09;5.51;85.92
69543;SHT31;56762;49.494;11.768;2023-12-22T01:05:39;5.42;85.24
69543;SHT31;56762;49.494;11.768;2023-12-22T01:08:07;5.24;83.85
69543;SHT31;56762;49.494;11.768;2023-12-22T01:10:34;5.18;82.92
69543;SHT31;56762;49.494;11.768;2023-12-22T01:13:03;5.16;85.27
69543;SHT31;56762;49.494;11.768;2023-12-22T01:15:30;5.26;86.68
69543;SHT31;56762;49.494;11.768;2023-12-22T01:17:59;5.24;85.05
69543;SHT31;56762;49.494;11.768;2023-12-22T01:20:27;5.27;83.67
69543;SHT31;56762;49.494;11.768;2023-12-22T01:22:55;5.29;82.96
69543;SHT31;56762;49.494;11.768;2023-12-22T01:25:23;5.40;86.46
69543;SHT31;56762;49.494;11.768;2023-12-22T01:27:51;5.39;85.47
69543;SHT31;56762;49.494;11.768;2023-12-22T01:30:19;5.40;85.82
69543;SHT31;56762;49.494;11.768;2023-12-22T01:32:47;5.39;81.99
69543;SHT31;56762;49.494;11.768;2023-12-22T01:35:16;5.40;85.22
69543;SHT31;56762;49.494;11.768;2023-12-22T01:37:44;5.75;85.88
69543;SHT31;56762;49.494;11.768;2023-12-22T01:40:14;5.67;84.36
69543;SHT31;56762;49.494;11.768;2023-12-22T01:42:42;5.64;83.61
69543;SHT31;56762;49.494;11.768;2023-12-22T01:45:10;5.70;85.38
69543;SHT31;56762;49.494;11.768;2023-12-22T01:47:38;5.63;83.31
69543;SHT31;56762;49.494;11.768;2023-12-22T01:50:07;5.68;84.59
69543;SHT31;56762;49.494;11.768;2023-12-22T01:52:39;5.92;84.28
69543;SHT31;56762;49.494;11.768;2023-12-22T01:55:11;6.11;84.16
69543;SHT31;56762;49.494;11.768;2023-12-22T01:57:41;6.09;82.94
69543;SHT31;56762;49.494;11.768;2023-12-22T02:00:09;6.15;83.24
69543;SHT31;56762;49.494;11.768;2023-12-22T02:02:38;6.19;83.64
69543;SHT31;56762;49.494;11.768;2023-12-22T02:05:05;5.98;82.56
69543;SHT31;56762;49.494;11.768;2023-12-22T02:07:36;6.13;83.81
69543;SHT31;56762;49.494;11.768;2023-12-22T02:10:06;6.12;83.70
69543;SHT31;56762;49.494;11.768;2023-12-22T02:12:34;6.12;83.40
69543;SHT31;56762;49.494;11.768;2023-12-22T02:15:02;6.28;83.73
69543;SHT31;56762;49.494;11.768;2023-12-22T02:17:39;6.32;82.34
69543;SHT31;56762;49.494;11.768;2023-12-22T02:20:12;6.29;82.87
69543;SHT31;56762;49.494;11.768;2023-12-22T02:22:43;6.13;81.90
69543;SHT31;56762;49.494;11.768;2023-12-22T02:25:10;6.16;82.46
69543;SHT31;56762;49.494;11.768;2023-12-22T02:27:42;6.29;82.38
69543;SHT31;56762;49.494;11.768;2023-12-22T02:30:15;5.97;83.02
69543;SHT31;56762;49.494;11.768;2023-12-22T02:32:51;6.06;83.22
69543;SHT31;56762;49.494;11.768;2023-12-22T02:35:20;5.84;82.53
69543;SHT31;56762;49.494;11.768;2023-12-22T02:37:51;5.79;81.50
69543;SHT31;56762;49.494;11.768;2023-12-22T02:40:20;5.84;84.72
69543;SHT31;56762;49.494;11.768;2023-12-22T02:42:47;5.75;82.83
69543;SHT31;56762;49.494;11.768;2023-12-22T02:45:17;5.99;84.75
69543;SHT31;56762;49.494;11.768;2023-12-22T02:47:45;5.97;82.50
69543;SHT31;56762;49.494;11.768;2023-12-22T02:50:16;5.95;83.93
69543;SHT31;56762;49.494;11.768;2023-12-22T02:52:44;5.78;82.18
69543;SHT31;56762;49.494;11.768;2023-12-22T02:55:13;5.94;84.16
69543;SHT31;56762;49.494;11.768;2023-12-22T02:57:41;5.81;85.08
69543;SHT31;56762;49.494;11.768;2023-12-22T03:00:09;5.81;84.87
69543;SHT31;56762;49.494;11.768;2023-12-22T03:02:37;5.64;83.72
69543;SHT31;56762;49.494;11.768;2023-12-22T03:05:06;5.77;83.74
69543;SHT31;56762;49.494;11.768;2023-12-22T03:07:34;5.64;83.08
69543;SHT31;56762;49.494;11.768;2023-12-22T03:10:02;5.73;85.84
69543;SHT31;56762;49.494;11.768;2023-12-22T03:12:31;5.91;85.44
69543;SHT31;56762;49.494;11.768;2023-12-22T03:14:59;5.73;84.16
69543;SHT31;56762;49.494;11.768;2023-12-22T03:17:27;5.58;83.20
69543;SHT31;56762;49.494;11.768;2023-12-22T03:19:54;5.64;83.78
69543;SHT31;56762;49.494;11.768;2023-12-22T03:22:22;5.74;85.65
69543;SHT31;56762;49.494;11.768;2023-12-22T03:24:50;5.75;85.38
69543;SHT31;56762;49.494;11.768;2023-12-22T03:27:18;5.77;84.08
69543;SHT31;56762;49.494;11.768;2023-12-22T03:29:48;5.81;83.63
69543;SHT31;56762;49.494;11.768;2023-12-22T03:32:16;5.75;85.18
69543;SHT31;56762;49.494;11.768;2023-12-22T03:34:43;5.82;83.94
69543;SHT31;56762;49.494;11.768;2023-12-22T03:37:11;5.98;83.33
69543;SHT31;56762;49.494;11.768;2023-12-22T03:39:39;5.68;81.89
69543;SHT31;56762;49.494;11.768;2023-12-22T03:42:07;5.64;84.90
69543;SHT31;56762;49.494;11.768;2023-12-22T03:44:35;5.60;83.45
69543;SHT31;56762;49.494;11.768;2023-12-22T03:47:04;5.63;83.46
69543;SHT31;56762;49.494;11.768;2023-12-22T03:49:31;5.54;84.18
69543;SHT31;56762;49.494;11.768;2023-12-22T03:51:58;5.46;83.06
69543;SHT31;56762;49.494;11.768;2023-12-22T03:54:27;5.43;83.47
69543;SHT31;56762;49.494;11.768;2023-12-22T03:56:54;5.40;86.27
69543;SHT31;56762;49.494;11.768;2023-12-22T03:59:22;5.40;82.24
69543;SHT31;56762;49.494;11.768;2023-12-22T04:01:50;5.32;84.92
69543;SHT31;56762;49.494;11.768;2023-12-22T04:04:20;5.19;81.69
69543;SHT31;56762;49.494;11.768;2023-12-22T04:06:49;5.13;85.14
69543;SHT31;56762;49.494;11.768;2023-12-22T04:09:17;5.18;85.75
69543;SHT31;56762;49.494;11.768;2023-12-22T04:11:45;5.36;84.75
69543;SHT31;56762;49.494;11.768;2023-12-22T04:14:13;5.29;82.85
69543;SHT31;56762;49.494;11.768;2023-12-22T04:16:42;5.43;83.58
69543;SHT31;56762;49.494;11.768;2023-12-22T04:19:09;5.53;83.70
69543;SHT31;56762;49.494;11.768;2023-12-22T04:21:39;5.40;81.77
69543;SHT31;56762;49.494;11.768;2023-12-22T04:24:07;5.27;80.57
69543;SHT31;56762;49.494;11.768;2023-12-22T04:26:35;5.08;83.16
69543;SHT31;56762;49.494;11.768;2023-12-22T04:29:03;5.06;83.61
69543;SHT31;56762;49.494;11.768;2023-12-22T04:31:31;4.97;86.63
69543;SHT31;56762;49.494;11.768;2023-12-22T04:33:59;5.05;86.02
69543;SHT31;56762;49.494;11.768;2023-12-22T04:36:27;5.23;84.57
69543;SHT31;56762;49.494;11.768;2023-12-22T04:38:56;5.40;84.93
69543;SHT31;56762;49.494;11.768;2023-12-22T04:41:24;5.46;82.33
69543;SHT31;56762;49.494;11.768;2023-12-22T04:43:51;5.50;83.82
69543;SHT31;56762;49.494;11.768;2023-12-22T04:46:19;5.47;84.16
69543;SHT31;56762;49.494;11.768;2023-12-22T04:48:47;5.48;84.03
69543;SHT31;56762;49.494;11.768;2023-12-22T04:51:16;5.46;82.11
69543;SHT31;56762;49.494;11.768;2023-12-22T04:53:43;5.57;82.33
69543;SHT31;56762;49.494;11.768;2023-12-22T04:56:13;5.39;83.95
69543;SHT31;56762;49.494;11.768;2023-12-22T04:58:40;5.47;83.88
69543;SHT31;56762;49.494;11.768;2023-12-22T05:01:08;5.70;83.57
69543;SHT31;56762;49.494;11.768;2023-12-22T05:03:36;5.79;82.12
69543;SHT31;56762;49.494;11.768;2023-12-22T05:06:04;5.68;82.93
69543;SHT31;56762;49.494;11.768;2023-12-22T05:08:32;5.79;82.26
69543;SHT31;56762;49.494;11.768;2023-12-22T05:11:00;5.82;83.20
69543;SHT31;56762;49.494;11.768;2023-12-22T05:13:29;5.85;82.18
69543;SHT31;56762;49.494;11.768;2023-12-22T05:15:57;5.64;80.96
69543;SHT31;56762;49.494;11.768;2023-12-22T05:18:25;5.75;83.11
69543;SHT31;56762;49.494;11.768;2023-12-22T05:20:53;5.68;81.68
69543;SHT31;56762;49.494;11.768;2023-12-22T05:23:21;5.70;82.26
69543;SHT31;56762;49.494;11.768;2023-12-22T05:25:49;5.50;81.97
69543;SHT31;56762;49.494;11.768;2023-12-22T05:28:17;5.22;80.76
69543;SHT31;56762;49.494;11.768;2023-12-22T05:30:47;5.26;83.14
69543;SHT31;56762;49.494;11.768;2023-12-22T05:33:15;5.08;80.84
69543;SHT31;56762;49.494;11.768;2023-12-22T05:35:43;4.89;80.59
69543;SHT31;56762;49.494;11.768;2023-12-22T05:38:11;4.85;80.75
69543;SHT31;56762;49.494;11.768;2023-12-22T05:40:38;4.85;84.77
69543;SHT31;56762;49.494;11.768;2023-12-22T05:43:06;5.00;82.45
69543;SHT31;56762;49.494;11.768;2023-12-22T05:45:34;5.24;82.80
69543;SHT31;56762;49.494;11.768;2023-12-22T05:48:05;5.15;83.78
69543;SHT31;56762;49.494;11.768;2023-12-22T05:50:33;5.06;81.43
69543;SHT31;56762;49.494;11.768;2023-12-22T05:53:01;4.85;80.28
69543;SHT31;56762;49.494;11.768;2023-12-22T05:55:29;4.78;82.36
69543;SHT31;56762;49.494;11.768;2023-12-22T05:57:57;4.85;82.34
69543;SHT31;56762;49.494;11.768;2023-12-22T06:00:25;4.89;82.28
69543;SHT31;56762;49.494;11.768;2023-12-22T06:02:53;5.00;83.45
69543;SHT31;56762;49.494;11.768;2023-12-22T06:05:22;5.12;83.15
69543;SHT31;56762;49.494;11.768;2023-12-22T06:07:50;5.29;83.17
69543;SHT31;56762;49.494;11.768;2023-12-22T06:10:18;5.11;81.81
69543;SHT31;56762;49.494;11.768;2023-12-22T06:12:46;4.93;84.18
69543;SHT31;56762;49.494;11.768;2023-12-22T06:15:14;4.99;83.86
69543;SHT31;56762;49.494;11.768;2023-12-22T06:17:42;4.97;82.72
69543;SHT31;56762;49.494;11.768;2023-12-22T06:20:10;5.11;83.90
69543;SHT31;56762;49.494;11.768;2023-12-22T06:22:39;5.22;83.21
69543;SHT31;56762;49.494;11.768;2023-12-22T06:25:08;5.27;81.19
69543;SHT31;56762;49.494;11.768;2023-12-22T06:27:36;5.36;82.65
69543;SHT31;56762;49.494;11.768;2023-12-22T06:30:05;5.29;81.93
69543;SHT31;56762;49.494;11.768;2023-12-22T06:32:34;5.23;83.90
69543;SHT31;56762;49.494;11.768;2023-12-22T06:35:07;5.47;83.81
69543;SHT31;56762;49.494;11.768;2023-12-22T06:37:42;5.39;83.19
69543;SHT31;56762;49.494;11.768;2023-12-22T06:40:11;5.36;82.19
69543;SHT31;56762;49.494;11.768;2023-12-22T06:42:39;5.09;83.00
69543;SHT31;56762;49.494;11.768;2023-12-22T06:45:07;5.33;83.98
69543;SHT31;56762;49.494;11.768;2023-12-22T06:47:37;5.32;84.10
69543;SHT31;56762;49.494;11.768;2023-12-22T06:50:06;5.09;82.17
69543;SHT31;56762;49.494;11.768;2023-12-22T06:52:34;5.02;82.30
69543;SHT31;56762;49.494;11.768;2023-12-22T06:55:05;5.12;84.89
69543;SHT31;56762;49.494;11.768;2023-12-22T06:57:32;4.76;81.98
69543;SHT31;56762;49.494;11.768;2023-12-22T07:00:03;4.51;82.74
69543;SHT31;56762;49.494;11.768;2023-12-22T07:02:31;4.31;83.99
69543;SHT31;56762;49.494;11.768;2023-12-22T07:05:02;4.24;85.65
69543;SHT31;56762;49.494;11.768;2023-12-22T07:07:34;4.34;85.38
69543;SHT31;56762;49.494;11.768;2023-12-22T07:10:04;4.48;86.41
69543;SHT31;56762;49.494;11.768;2023-12-22T07:12:32;4.44;83.61
69543;SHT31;56762;49.494;11.768;2023-12-22T07:15:00;4.71;84.26
69543;SHT31;56762;49.494;11.768;2023-12-22T07:17:28;4.81;84.49
69543;SHT31;56762;49.494;11.768;2023-12-22T07:19:56;4.82;85.26
69543;SHT31;56762;49.494;11.768;2023-12-22T07:22:25;4.95;82.08
69543;SHT31;56762;49.494;11.768;2023-12-22T07:24:53;5.18;84.01
69543;SHT31;56762;49.494;11.768;2023-12-22T07:27:25;5.19;81.55
69543;SHT31;56762;49.494;11.768;2023-12-22T07:29:54;5.24;84.17
69543;SHT31;56762;49.494;11.768;2023-12-22T07:32:22;5.36;84.01
69543;SHT31;56762;49.494;11.768;2023-12-22T07:34:49;5.67;83.38
69543;SHT31;56762;49.494;11.768;2023-12-22T07:37:17;5.91;82.55
69543;SHT31;56762;49.494;11.768;2023-12-22T07:39:48;6.08;80.38
69543;SHT31;56762;49.494;11.768;2023-12-22T07:42:16;5.90;80.39
69543;SHT31;56762;49.494;11.768;2023-12-22T07:44:45;5.81;81.28
69543;SHT31;56762;49.494;11.768;2023-12-22T07:47:13;5.94;82.34
69543;SHT31;56762;49.494;11.768;2023-12-22T07:49:41;5.70;81.21
69543;SHT31;56762;49.494;11.768;2023-12-22T07:52:10;5.40;80.57
69543;SHT31;56762;49.494;11.768;2023-12-22T07:54:38;5.36;82.31
69543;SHT31;56762;49.494;11.768;2023-12-22T07:57:06;5.36;82.73
69543;SHT31;56762;49.494;11.768;2023-12-22T07:59:34;5.33;80.80
69543;SHT31;56762;49.494;11.768;2023-12-22T08:02:03;5.29;80.92
69543;SHT31;56762;49.494;11.768;2023-12-22T08:04:31;5.15;83.72
69543;SHT31;56762;49.494;11.768;2023-12-22T08:06:59;5.05;80.55
69543;SHT31;56762;49.494;11.768;2023-12-22T08:09:28;4.96;82.82
69543;SHT31;56762;49.494;11.768;2023-12-22T08:11:56;5.06;83.87
69543;SHT31;56762;49.494;11.768;2023-12-22T08:14:24;5.16;84.39
69543;SHT31;56762;49.494;11.768;2023-12-22T08:16:52;5.19;84.15
69543;SHT31;56762;49.494;11.768;2023-12-22T08:19:21;5.12;83.80
69543;SHT31;56762;49.494;11.768;2023-12-22T08:21:52;5.22;84.08
69543;SHT31;56762;49.494;11.768;2023-12-22T08:24:21;5.37;82.02
69543;SHT31;56762;49.494;11.768;2023-12-22T08:26:49;5.47;83.99
69543;SHT31;56762;49.494;11.768;2023-12-22T08:29:18;5.51;82.82
69543;SHT31;56762;49.494;11.768;2023-12-22T08:31:46;5.63;82.32
69543;SHT31;56762;49.494;11.768;2023-12-22T08:34:14;5.67;80.14
69543;SHT31;56762;49.494;11.768;2023-12-22T08:36:44;5.87;80.60
69543;SHT31;56762;49.494;11.768;2023-12-22T08:39:12;5.88;79.06
69543;SHT31;56762;49.494;11.768;2023-12-22T08:41:41;5.98;80.10
69543;SHT31;56762;49.494;11.768;2023-12-22T08:44:09;6.01;79.77
69543;SHT31;56762;49.494;11.768;2023-12-22T08:46:37;5.99;77.82
69543;SHT31;56762;49.494;11.768;2023-12-22T08:49:05;5.70;80.01
69543;SHT31;56762;49.494;11.768;2023-12-22T08:51:34;5.60;80.81
69543;SHT31;56762;49.494;11.768;2023-12-22T08:54:03;5.67;81.93
69543;SHT31;56762;49.494;11.768;2023-12-22T08:56:31;5.67;79.84
69543;SHT31;56762;49.494;11.768;2023-12-22T08:59:00;5.71;81.36
69543;SHT31;56762;49.494;11.768;2023-12-22T09:01:28;5.63;80.20
69543;SHT31;56762;49.494;11.768;2023-12-22T09:03:56;5.54;79.76
69543;SHT31;56762;49.494;11.768;2023-12-22T09:06:24;5.51;81.83
69543;SHT31;56762;49.494;11.768;2023-12-22T09:08:52;5.50;81.73
69543;SHT31;56762;49.494;11.768;2023-12-22T09:11:23;5.44;81.63
69543;SHT31;56762;49.494;11.768;2023-12-22T09:13:51;5.40;79.37
69543;SHT31;56762;49.494;11.768;2023-12-22T09:16:21;5.47;80.15
69543;SHT31;56762;49.494;11.768;2023-12-22T09:18:49;5.63;82.29
69543;SHT31;56762;49.494;11.768;2023-12-22T09:21:18;5.68;79.91
69543;SHT31;56762;49.494;11.768;2023-12-22T09:23:46;5.67;80.55
69543;SHT31;56762;49.494;11.768;2023-12-22T09:26:14;5.71;79.58
69543;SHT31;56762;49.494;11.768;2023-12-22T09:28:44;5.79;79.70
69543;SHT31;56762;49.494;11.768;2023-12-22T09:31:12;5.81;80.01
69543;SHT31;56762;49.494;11.768;2023-12-22T09:33:41;5.81;79.30
69543;SHT31;56762;49.494;11.768;2023-12-22T09:36:09;5.92;80.68
69543;SHT31;56762;49.494;11.768;2023-12-22T09:38:38;6.06;79.98
69543;SHT31;56762;49.494;11.768;2023-12-22T09:41:06;5.95;79.43
69543;SHT31;56762;49.494;11.768;2023-12-22T09:43:35;6.02;80.38
69543;SHT31;56762;49.494;11.768;2023-12-22T09:46:06;6.02;78.84
69543;SHT31;56762;49.494;11.768;2023-12-22T09:48:35;5.94;79.91
69543;SHT31;56762;49.494;11.768;2023-12-22T09:51:06;5.91;80.20
69543;SHT31;56762;49.494;11.768;2023-12-22T09:53:35;5.85;80.15
69543;SHT31;56762;49.494;11.768;2023-12-22T09:56:04;5.67;81.72
69543;SHT31;56762;49.494;11.768;2023-12-22T09:58:33;5.78;82.71
69543;SHT31;56762;49.494;11.768;2023-12-22T10:01:02;5.95;82.42
69543;SHT31;56762;49.494;11.768;2023-12-22T10:03:34;6.01;82.27
69543;SHT31;56762;49.494;11.768;2023-12-22T10:06:03;5.94;81.64
69543;SHT31;56762;49.494;11.768;2023-12-22T10:08:32;5.99;82.19
69543;SHT31;56762;49.494;11.768;2023-12-22T10:11:01;5.92;82.57
69543;SHT31;56762;49.494;11.768;2023-12-22T10:13:33;5.85;82.84
69543;SHT31;56762;49.494;11.768;2023-12-22T10:16:04;5.98;82.99
69543;SHT31;56762;49.494;11.768;2023-12-22T10:18:34;6.04;82.43
69543;SHT31;56762;49.494;11.768;2023-12-22T10:21:03;5.81;81.00
69543;SHT31;56762;49.494;11.768;2023-12-22T10:23:30;5.75;82.65
69543;SHT31;56762;49.494;11.768;2023-12-22T10:25:58;5.75;83.22
69543;SHT31;56762;49.494;11.768;2023-12-22T10:28:27;5.81;82.13
69543;SHT31;56762;49.494;11.768;2023-12-22T10:30:56;5.84;81.52
69543;SHT31;56762;49.494;11.768;2023-12-22T10:33:25;5.64;79.59
69543;SHT31;56762;49.494;11.768;2023-12-22T10:35:55;5.58;81.99
69543;SHT31;56762;49.494;11.768;2023-12-22T10:38:22;5.57;82.25
69543;SHT31;56762;49.494;11.768;2023-12-22T10:40:51;5.51;80.43
69543;SHT31;56762;49.494;11.768;2023-12-22T10:43:19;5.47;79.74
69543;SHT31;56762;49.494;11.768;2023-12-22T10:45:47;5.47;81.34
69543;SHT31;56762;49.494;11.768;2023-12-22T10:48:15;5.61;79.58
69543;SHT31;56762;49.494;11.768;2023-12-22T10:50:43;5.64;80.36
69543;SHT31;56762;49.494;11.768;2023-12-22T10:53:13;5.50;78.52
69543;SHT31;56762;49.494;11.768;2023-12-22T10:55:46;5.54;81.35
69543;SHT31;56762;49.494;11.768;2023-12-22T10:58:16;5.55;80.16
69543;SHT31;56762;49.494;11.768;2023-12-22T11:00:45;5.71;80.92
69543;SHT31;56762;49.494;11.768;2023-12-22T11:03:17;5.70;81.29
69543;SHT31;56762;49.494;11.768;2023-12-22T11:05:46;5.84;80.87
69543;SHT31;56762;49.494;11.768;2023-12-22T11:08:16;5.78;81.33
69543;SHT31;56762;49.494;11.768;2023-12-22T11:10:50;5.74;80.87
69543;SHT31;56762;49.494;11.768;2023-12-22T11:13:20;5.63;82.67
69543;SHT31;56762;49.494;11.768;2023-12-22T11:15:49;5.73;83.26
69543;SHT31;56762;49.494;11.768;2023-12-22T11:18:18;5.67;83.17
69543;SHT31;56762;49.494;11.768;2023-12-22T11:20:47;5.71;83.74
69543;SHT31;56762;49.494;11.768;2023-12-22T11:23:17;5.68;83.01
69543;SHT31;56762;49.494;11.768;2023-12-22T11:25:48;5.92;83.97
69543;SHT31;56762;49.494;11.768;2023-12-22T11:28:18;5.77;83.18
69543;SHT31;56762;49.494;11.768;2023-12-22T11:30:49;5.71;84.71
69543;SHT31;56762;49.494;11.768;2023-12-22T11:33:25;6.02;83.52
69543;SHT31;56762;49.494;11.768;2023-12-22T11:35:55;6.12;83.39
69543;SHT31;56762;49.494;11.768;2023-12-22T11:38:25;6.29;82.87
69543;SHT31;56762;49.494;11.768;2023-12-22T11:40:53;6.40;82.35
69543;SHT31;56762;49.494;11.768;2023-12-22T11:43:21;6.11;83.32
69543;SHT31;56762;49.494;11.768;2023-12-22T11:45:50;6.18;83.23
69543;SHT31;56762;49.494;11.768;2023-12-22T11:48:18;6.28;83.49
69543;SHT31;56762;49.494;11.768;2023-12-22T11:50:47;6.42;82.76
69543;SHT31;56762;49.494;11.768;2023-12-22T11:53:20;6.56;82.69
69543;SHT31;56762;49.494;11.768;2023-12-22T11:56:02;6.72;82.18
69543;SHT31;56762;49.494;11.768;2023-12-22T11:58:37;6.80;82.35
69543;SHT31;56762;49.494;11.768;2023-12-22T12:01:06;6.79;82.27
69543;SHT31;56762;49.494;11.768;2023-12-22T12:03:37;6.57;82.98
69543;SHT31;56762;49.494;11.768;2023-12-22T12:06:17;6.56;82.96
69543;SHT31;56762;49.494;11.768;2023-12-22T12:08:48;6.49;83.73
69543;SHT31;56762;49.494;11.768;2023-12-22T12:11:19;6.66;83.39
69543;SHT31;56762;49.494;11.768;2023-12-22T12:13:48;6.49;83.69
69543;SHT31;56762;49.494;11.768;2023-12-22T12:16:19;6.44;83.90
69543;SHT31;56762;49.494;11.768;2023-12-22T12:18:48;6.44;84.32
69543;SHT31;56762;49.494;11.768;2023-12-22T12:21:19;6.35;83.97
69543;SHT31;56762;49.494;11.768;2023-12-22T12:23:48;6.28;84.63
69543;SHT31;56762;49.494;11.768;2023-12-22T12:26:17;6.22;84.97
69543;SHT31;56762;49.494;11.768;2023-12-22T12:28:47;6.21;85.16
69543;SHT31;56762;49.494;11.768;2023-12-22T12:31:15;5.97;85.92
69543;SHT31;56762;49.494;11.768;2023-12-22T12:33:44;6.11;86.00
69543;SHT31;56762;49.494;11.768;2023-12-22T12:36:14;6.19;85.98
69543;SHT31;56762;49.494;11.768;2023-12-22T12:38:51;6.08;85.73
69543;SHT31;56762;49.494;11.768;2023-12-22T12:41:24;6.01;86.62
69543;SHT31;56762;49.494;11.768;2023-12-22T12:43:58;5.97;86.75
69543;SHT31;56762;49.494;11.768;2023-12-22T12:46:32;5.99;86.81
69543;SHT31;56762;49.494;11.768;2023-12-22T12:49:03;6.12;86.36
69543;SHT31;56762;49.494;11.768;2023-12-22T12:51:35;6.19;85.97
69543;SHT31;56762;49.494;11.768;2023-12-22T12:54:04;6.15;86.20
69543;SHT31;56762;49.494;11.768;2023-12-22T12:56:37;5.99;87.06
69543;SHT31;56762;49.494;11.768;2023-12-22T12:59:08;6.09;87.04
69543;SHT31;56762;49.494;11.768;2023-12-22T13:01:40;6.09;87.19
69543;SHT31;56762;49.494;11.768;2023-12-22T13:04:08;6.06;86.97
69543;SHT31;56762;49.494;11.768;2023-12-22T13:06:43;6.12;87.34
69543;SHT31;56762;49.494;11.768;2023-12-22T13:09:13;6.18;87.20
69543;SHT31;56762;49.494;11.768;2023-12-22T13:11:45;6.29;87.02
69543;SHT31;56762;49.494;11.768;2023-12-22T13:14:22;6.49;86.08
69543;SHT31;56762;49.494;11.768;2023-12-22T13:16:52;6.60;85.22
69543;SHT31;56762;49.494;11.768;2023-12-22T13:19:22;6.73;85.24
69543;SHT31;56762;49.494;11.768;2023-12-22T13:21:53;6.76;85.18
69543;SHT31;56762;49.494;11.768;2023-12-22T13:24:22;6.69;85.22
69543;SHT31;56762;49.494;11.768;2023-12-22T13:26:59;6.77;85.09
69543;SHT31;56762;49.494;11.768;2023-12-22T13:29:29;6.88;84.90
69543;SHT31;56762;49.494;11.768;2023-12-22T13:31:57;6.94;84.53
69543;SHT31;56762;49.494;11.768;2023-12-22T13:34:25;6.81;85.14
69543;SHT31;56762;49.494;11.768;2023-12-22T13:36:56;6.73;85.54
69543;SHT31;56762;49.494;11.768;2023-12-22T13:39:28;6.73;85.86
69543;SHT31;56762;49.494;11.768;2023-12-22T13:41:56;6.74;86.03
69543;SHT31;56762;49.494;11.768;2023-12-22T13:44:24;6.83;85.75
69543;SHT31;56762;49.494;11.768;2023-12-22T13:46:54;6.90;85.27
69543;SHT31;56762;49.494;11.768;2023-12-22T13:49:22;6.83;85.96
69543;SHT31;56762;49.494;11.768;2023-12-22T13:51:49;6.93;85.58
69543;SHT31;56762;49.494;11.768;2023-12-22T13:54:18;6.97;85.56
69543;SHT31;56762;49.494;11.768;2023-12-22T13:56:46;6.97;85.63
69543;SHT31;56762;49.494;11.768;2023-12-22T13:59:15;7.08;85.07
69543;SHT31;56762;49.494;11.768;2023-12-22T14:01:45;7.08;85.58
69543;SHT31;56762;49.494;11.768;2023-12-22T14:04:14;7.16;85.00
69543;SHT31;56762;49.494;11.768;2023-12-22T14:06:42;7.24;84.78
69543;SHT31;56762;49.494;11.768;2023-12-22T14:09:10;7.18;85.39
69543;SHT31;56762;49.494;11.768;2023-12-22T14:11:38;7.28;84.87
69543;SHT31;56762;49.494;11.768;2023-12-22T14:14:18;7.15;85.59
69543;SHT31;56762;49.494;11.768;2023-12-22T14:16:47;7.24;85.13
69543;SHT31;56762;49.494;11.768;2023-12-22T14:19:16;7.35;84.75
69543;SHT31;56762;49.494;11.768;2023-12-22T14:21:44;7.32;85.24
69543;SHT31;56762;49.494;11.768;2023-12-22T14:24:11;7.28;85.58
69543;SHT31;56762;49.494;11.768;2023-12-22T14:26:52;7.26;85.37
69543;SHT31;56762;49.494;11.768;2023-12-22T14:29:20;7.35;84.98
69543;SHT31;56762;49.494;11.768;2023-12-22T14:31:49;7.34;85.35
69543;SHT31;56762;49.494;11.768;2023-12-22T14:34:18;7.39;85.01
69543;SHT31;56762;49.494;11.768;2023-12-22T14:36:46;7.31;85.54
69543;SHT31;56762;49.494;11.768;2023-12-22T14:39:14;7.35;85.49
69543;SHT31;56762;49.494;11.768;2023-12-22T14:41:42;7.18;86.10
69543;SHT31;56762;49.494;11.768;2023-12-22T14:44:10;7.21;86.05
69543;SHT31;56762;49.494;11.768;2023-12-22T14:46:38;7.07;86.65
69543;SHT31;56762;49.494;11.768;2023-12-22T14:49:07;7.14;86.55
69543;SHT31;56762;49.494;11.768;2023-12-22T14:51:37;7.08;86.68
69543;SHT31;56762;49.494;11.768;2023-12-22T14:54:04;6.88;87.69
69543;SHT31;56762;49.494;11.768;2023-12-22T14:56:33;6.87;87.98
69543;SHT31;56762;49.494;11.768;2023-12-22T14:59:00;6.76;88.79
69543;SHT31;56762;49.494;11.768;2023-12-22T15:01:28;6.63;89.42
69543;SHT31;56762;49.494;11.768;2023-12-22T15:04:00;6.69;89.15
69543;SHT31;56762;49.494;11.768;2023-12-22T15:06:29;6.83;87.93
69543;SHT31;56762;49.494;11.768;2023-12-22T15:09:01;6.72;88.98
69543;SHT31;56762;49.494;11.768;2023-12-22T15:11:29;6.62;89.29
69543;SHT31;56762;49.494;11.768;2023-12-22T15:13:59;6.67;89.15
69543;SHT31;56762;49.494;11.768;2023-12-22T15:16:27;6.66;89.44
69543;SHT31;56762;49.494;11.768;2023-12-22T15:18:56;6.62;89.57
69543;SHT31;56762;49.494;11.768;2023-12-22T15:21:24;6.47;90.31
69543;SHT31;56762;49.494;11.768;2023-12-22T15:23:52;6.50;90.04
69543;SHT31;56762;49.494;11.768;2023-12-22T15:26:23;6.50;89.78
69543;SHT31;56762;49.494;11.768;2023-12-22T15:28:56;6.53;89.93
69543;SHT31;56762;49.494;11.768;2023-12-22T15:31:24;6.50;90.04
69543;SHT31;56762;49.494;11.768;2023-12-22T15:33:52;6.60;89.53
69543;SHT31;56762;49.494;11.768;2023-12-22T15:36:20;6.58;89.58
69543;SHT31;56762;49.494;11.768;2023-12-22T15:38:48;6.56;89.68
69543;SHT31;56762;49.494;11.768;2023-12-22T15:41:17;6.57;89.53